Big Water, Utah
Current Conditions -  °F | °C
As of 12:53 PM on Thursday 30 Oct 2014 (Local Time) from KPGA Reporting Station
Clear Clear  
Wind Chill: 64°   Ceiling: Unl
Heat Index: 64°   Visibility: 10mi
Dew Point: 22°   Wind: 6mph
Humidity: 20%   Direction: 330°NNW
Pressure: 30.28"   Gusts: NA
Location:  37.2711°N, 111.769°W
Report Text: KPGA 301853Z AUTO 33005KT 10SM CLR 18/M06 A3028 RMK AO2 SLP216 T01781056
Loading
Personal Weather Stations






























Interactive Weather Map
Tropical Storm Tracking
New forecast layout! Learn more

10-Day Weather Forecast

Advertisements
Track Severe Weather on mobile